createdAt,value
2023-02-22T00:01:51.334Z,79.40
2023-02-22T00:08:50.154Z,78.91
2023-02-22T00:11:46.665Z,78.39
2023-02-22T00:15:08.207Z,77.50
2023-02-22T00:18:28.899Z,76.91
2023-02-22T00:21:26.362Z,76.12
2023-02-22T00:24:32.574Z,75.34
2023-02-22T00:31:21.508Z,74.44
2023-02-22T00:34:20.741Z,74.20
2023-02-22T00:41:13.876Z,73.11
2023-02-22T00:48:02.861Z,72.05
2023-02-22T00:54:49.709Z,71.73
2023-02-22T00:57:38.343Z,71.72
2023-02-22T01:01:04.064Z,71.98
2023-02-22T01:03:41.505Z,72.33
2023-02-22T01:06:34.324Z,72.33
2023-02-22T01:09:03.499Z,72.50
2023-02-22T01:12:27.554Z,72.39
2023-02-22T01:15:50.096Z,72.28
2023-02-22T01:18:45.491Z,72.44
2023-02-22T01:25:28.964Z,72.19
2023-02-22T01:28:02.792Z,72.17
2023-02-22T01:30:44.488Z,72.02
2023-02-22T01:37:38.770Z,72.76
2023-02-22T01:40:10.113Z,72.89
2023-02-22T01:43:05.971Z,73.24
2023-02-22T01:45:57.361Z,73.21
2023-02-22T01:48:33.623Z,73.48
2023-02-22T01:51:31.534Z,73.88
2023-02-22T01:54:09.285Z,73.92
2023-02-22T01:57:12.716Z,74.26
2023-02-22T02:04:00.058Z,74.08
2023-02-22T02:06:53.563Z,74.53
2023-02-22T02:09:31.902Z,74.79
2023-02-22T02:16:25.952Z,74.98
2023-02-22T02:23:37.430Z,74.49
2023-02-22T02:31:24.536Z,75.93
2023-02-22T02:34:18.361Z,76.20
2023-02-22T02:41:11.010Z,77.22
2023-02-22T02:43:55.814Z,77.32
2023-02-22T02:47:24.114Z,77.63
2023-02-22T02:50:01.650Z,78.34
2023-02-22T02:52:42.771Z,78.93
2023-02-22T02:55:39.407Z,79.85
2023-02-22T03:02:35.412Z,80.81
2023-02-22T03:09:42.118Z,80.69
2023-02-22T03:16:40.719Z,80.65
2023-02-22T03:23:50.024Z,80.42
2023-02-22T03:26:27.463Z,80.39
2023-02-22T03:29:05.281Z,80.49
2023-02-22T03:35:59.996Z,80.76
2023-02-22T03:42:53.041Z,81.37
2023-02-22T03:49:48.338Z,81.30
2023-02-22T03:56:47.494Z,81.53
2023-02-22T03:59:24.005Z,81.48
2023-02-22T04:02:43.853Z,81.50
2023-02-22T04:06:16.751Z,81.57
2023-02-22T04:17:41.759Z,83.75
2023-02-22T04:20:20.387Z,84.84
2023-02-22T04:27:12.585Z,84.80
2023-02-22T04:34:06.882Z,84.89
2023-02-22T04:37:03.709Z,84.81
2023-02-22T04:43:57.517Z,84.31
2023-02-22T04:50:51.714Z,84.13
2023-02-22T04:53:24.494Z,83.76
2023-02-22T04:55:56.103Z,83.87
2023-02-22T05:02:50.720Z,84.05
2023-02-22T05:09:52.783Z,84.28
2023-02-22T05:16:51.487Z,84.70
2023-02-22T05:23:38.396Z,83.93
2023-02-22T05:26:40.497Z,83.34
2023-02-22T05:29:10.258Z,83.89
2023-02-22T05:32:04.362Z,83.98
2023-02-22T05:34:47.986Z,84.35
2023-02-22T05:42:32.608Z,84.83
2023-02-22T05:54:09.616Z,86.53
2023-02-22T06:00:56.387Z,86.57
2023-02-22T06:07:51.105Z,87.60
2023-02-22T06:10:28.000Z,87.68
2023-02-22T06:13:00.800Z,87.72
2023-02-22T06:16:21.227Z,87.65
2023-02-22T06:19:16.159Z,87.61
2023-02-22T06:22:35.926Z,87.53
2023-02-22T06:29:12.103Z,86.79
2023-02-22T06:40:38.083Z,86.31
2023-02-22T06:43:06.484Z,86.26
2023-02-22T06:45:43.506Z,86.16
2023-02-22T06:49:10.168Z,86.37
2023-02-22T06:56:05.901Z,86.20
2023-02-22T07:03:00.823Z,85.19
2023-02-22T07:09:41.563Z,84.30
2023-02-22T07:12:35.333Z,84.39
2023-02-22T07:19:24.873Z,82.90
2023-02-22T07:26:17.361Z,81.06
2023-02-22T07:33:00.557Z,80.24
2023-02-22T07:40:48.702Z,77.72
2023-02-22T07:47:42.803Z,78.13
2023-02-22T07:54:29.360Z,76.00
2023-02-22T08:00:52.391Z,75.78
2023-02-22T08:03:24.654Z,76.72
2023-02-22T08:06:12.076Z,77.30
2023-02-22T08:13:13.434Z,76.70
2023-02-22T08:20:56.189Z,75.08
2023-02-22T08:28:01.517Z,75.54
2023-02-22T08:31:33.666Z,74.01
2023-02-22T08:35:05.168Z,73.14
2023-02-22T08:38:04.971Z,72.60
2023-02-22T08:40:39.484Z,72.28
2023-02-22T08:47:34.818Z,72.25
2023-02-22T08:54:42.830Z,71.99
2023-02-22T09:01:35.494Z,71.26
2023-02-22T09:04:19.074Z,71.65
2023-02-22T09:06:51.983Z,71.68
2023-02-22T09:09:25.175Z,70.65
2023-02-22T09:11:57.432Z,70.55
2023-02-22T09:14:25.865Z,70.35
2023-02-22T09:16:56.619Z,69.98
2023-02-22T09:19:43.360Z,70.44
2023-02-22T09:22:41.344Z,70.25
2023-02-22T09:25:17.515Z,70.58
2023-02-22T09:27:49.229Z,69.34
2023-02-22T09:30:41.553Z,69.77
2023-02-22T09:33:13.800Z,69.98
2023-02-22T09:36:02.555Z,68.92
2023-02-22T09:39:28.282Z,69.54
2023-02-22T09:46:31.938Z,70.55
2023-02-22T09:49:21.709Z,70.52
2023-02-22T09:52:02.142Z,70.28
2023-02-22T09:54:43.485Z,70.30
2023-02-22T09:57:17.463Z,70.67
2023-02-22T09:59:57.063Z,70.78
2023-02-22T10:02:34.706Z,69.61
2023-02-22T10:05:13.813Z,69.67
2023-02-22T10:07:52.783Z,69.65
2023-02-22T10:10:40.545Z,68.97
2023-02-22T10:13:22.336Z,68.94
2023-02-22T10:15:58.461Z,68.82
2023-02-22T10:18:40.645Z,69.02
2023-02-22T10:21:19.305Z,68.83
2023-02-22T10:24:00.565Z,69.28
2023-02-22T10:26:36.801Z,69.24
2023-02-22T10:29:19.059Z,68.18
2023-02-22T10:31:56.244Z,68.08
2023-02-22T10:34:37.488Z,68.54
2023-02-22T10:37:21.473Z,67.24
2023-02-22T10:39:56.969Z,67.73
2023-02-22T10:42:29.444Z,66.66
2023-02-22T10:45:05.073Z,66.52
2023-02-22T10:47:35.597Z,67.17
2023-02-22T10:50:16.589Z,66.02
2023-02-22T10:52:45.920Z,66.11
2023-02-22T10:56:22.899Z,66.87
2023-02-22T10:59:02.563Z,66.12
2023-02-22T11:01:41.756Z,65.77
2023-02-22T11:04:15.954Z,65.64
2023-02-22T11:07:34.257Z,64.89
2023-02-22T11:10:06.229Z,65.56
2023-02-22T11:12:38.558Z,65.97
2023-02-22T11:15:29.654Z,63.56
2023-02-22T11:18:01.972Z,64.98
2023-02-22T11:20:38.611Z,63.56
2023-02-22T11:23:12.476Z,63.43
2023-02-22T11:26:10.263Z,63.47
2023-02-22T11:28:49.507Z,62.97
2023-02-22T11:31:30.232Z,62.43
2023-02-22T11:34:02.882Z,62.41
2023-02-22T11:36:46.852Z,61.41
2023-02-22T11:39:45.470Z,61.27
2023-02-22T11:42:24.571Z,62.02
2023-02-22T11:45:10.901Z,60.34
2023-02-22T11:47:52.666Z,57.75
2023-02-22T11:50:31.023Z,58.18
2023-02-22T11:53:22.207Z,58.42
2023-02-22T11:56:02.971Z,59.51
2023-02-22T11:58:40.450Z,59.14
2023-02-22T12:01:38.926Z,58.24
2023-02-22T12:04:45.893Z,58.48
2023-02-22T12:07:50.968Z,58.13
2023-02-22T12:10:48.745Z,58.68
2023-02-22T12:13:49.978Z,59.90
2023-02-22T12:16:26.104Z,60.47
2023-02-22T12:19:12.891Z,59.26
2023-02-22T12:22:11.555Z,60.12
2023-02-22T12:24:44.535Z,59.56
2023-02-22T12:27:18.063Z,58.17
2023-02-22T12:29:57.852Z,59.74
2023-02-22T12:32:41.829Z,59.67
2023-02-22T12:35:17.909Z,59.65
2023-02-22T12:38:00.106Z,59.42
2023-02-22T12:40:35.708Z,59.22
2023-02-22T12:43:10.525Z,59.94
2023-02-22T12:45:44.543Z,60.25
2023-02-22T12:48:32.697Z,60.71
2023-02-22T12:51:12.888Z,60.30
2023-02-22T12:54:13.011Z,60.23
2023-02-22T12:56:50.194Z,59.75
2023-02-22T12:59:33.828Z,59.00
2023-02-22T13:02:13.911Z,61.32
2023-02-22T13:04:45.486Z,59.92
2023-02-22T13:07:30.471Z,58.47
2023-02-22T13:10:30.864Z,58.95
2023-02-22T13:13:07.065Z,59.06
2023-02-22T13:16:26.796Z,58.51
2023-02-22T13:19:04.399Z,58.61
2023-02-22T13:21:44.678Z,59.63
2023-02-22T13:24:54.032Z,60.18
2023-02-22T13:27:39.650Z,61.25
2023-02-22T13:30:20.027Z,60.82
2023-02-22T13:33:26.288Z,60.14
2023-02-22T13:36:12.725Z,60.42
2023-02-22T13:39:28.040Z,60.23
2023-02-22T13:42:18.802Z,60.86
2023-02-22T13:45:28.307Z,59.11
2023-02-22T13:48:09.417Z,59.14
2023-02-22T13:51:21.960Z,57.46
2023-02-22T13:53:57.249Z,58.91
2023-02-22T13:56:27.920Z,58.42
2023-02-22T13:59:01.084Z,59.19
2023-02-22T14:01:55.034Z,59.75
2023-02-22T14:04:46.546Z,59.91
2023-02-22T14:07:49.559Z,60.14
2023-02-22T14:10:48.996Z,60.27
2023-02-22T14:13:55.931Z,60.12
2023-02-22T14:17:08.028Z,60.19
2023-02-22T14:19:38.743Z,59.64
2023-02-22T14:22:13.121Z,59.87
2023-02-22T14:25:28.445Z,59.83
2023-02-22T14:28:10.158Z,58.87
2023-02-22T14:30:41.284Z,59.42
2023-02-22T14:33:49.803Z,59.21
2023-02-22T14:36:29.705Z,58.86
2023-02-22T14:39:20.467Z,57.83
2023-02-22T14:42:01.635Z,58.74
2023-02-22T14:44:49.201Z,59.62
2023-02-22T14:47:28.347Z,59.60
2023-02-22T14:50:40.843Z,60.11
2023-02-22T14:53:25.505Z,59.70
2023-02-22T14:56:07.045Z,59.79
2023-02-22T14:58:46.208Z,60.55
2023-02-22T15:01:33.870Z,60.77
2023-02-22T15:04:23.382Z,60.13
2023-02-22T15:07:27.410Z,60.89
2023-02-22T15:10:17.859Z,61.10
2023-02-22T15:13:09.047Z,61.55
2023-02-22T15:15:43.929Z,60.69
2023-02-22T15:18:27.632Z,60.82
2023-02-22T15:20:59.668Z,61.14
2023-02-22T15:23:57.441Z,62.29
2023-02-22T15:27:22.664Z,61.90
2023-02-22T15:30:43.766Z,61.58
2023-02-22T15:37:33.681Z,60.64
2023-02-22T15:40:33.384Z,61.19
2023-02-22T15:43:43.488Z,60.40
2023-02-22T15:50:39.336Z,60.61
2023-02-22T15:53:48.960Z,61.03
2023-02-22T15:57:11.948Z,60.67
2023-02-22T16:00:36.445Z,61.14
2023-02-22T16:03:10.550Z,62.26
2023-02-22T16:05:49.929Z,64.25
2023-02-22T16:09:17.741Z,64.68
2023-02-22T16:13:00.398Z,65.28
2023-02-22T16:15:34.286Z,66.19
2023-02-22T16:18:57.151Z,66.68
2023-02-22T16:21:27.353Z,66.99
2023-02-22T16:24:10.286Z,67.29
2023-02-22T16:27:35.613Z,67.49
2023-02-22T16:30:25.785Z,68.14
2023-02-22T16:33:06.771Z,68.21
2023-02-22T16:36:04.872Z,68.41
2023-02-22T16:39:10.260Z,68.52
2023-02-22T16:41:42.896Z,68.62
2023-02-22T16:44:15.294Z,68.62
2023-02-22T16:46:45.550Z,68.72
2023-02-22T16:49:58.930Z,68.77
2023-02-22T16:52:58.780Z,68.76
2023-02-22T16:55:30.750Z,68.98
2023-02-22T16:58:28.446Z,69.05
2023-02-22T17:01:07.736Z,69.45
2023-02-22T17:04:47.992Z,69.71
2023-02-22T17:11:56.193Z,69.93
2023-02-22T17:14:35.255Z,69.97
2023-02-22T17:21:31.354Z,70.16
2023-02-22T17:24:01.499Z,70.56
2023-02-22T17:26:31.562Z,70.75
2023-02-22T17:34:08.155Z,71.02
2023-02-22T17:37:07.379Z,71.11
2023-02-22T17:40:00.312Z,71.21
2023-02-22T17:42:35.772Z,71.07
2023-02-22T17:45:05.262Z,71.11
2023-02-22T17:48:01.155Z,71.49
2023-02-22T17:50:37.117Z,71.75
2023-02-22T17:58:01.454Z,72.13
2023-02-22T18:01:10.935Z,73.79
2023-02-22T18:03:43.625Z,75.16
2023-02-22T18:06:35.640Z,75.74
2023-02-22T18:10:12.686Z,76.09
2023-02-22T18:12:44.471Z,76.09
2023-02-22T18:15:23.876Z,75.56
2023-02-22T18:18:52.275Z,75.13
2023-02-22T18:21:47.838Z,75.72
2023-02-22T18:24:24.398Z,76.16
2023-02-22T18:26:59.689Z,76.14
2023-02-22T18:29:30.998Z,76.54
2023-02-22T18:33:13.053Z,76.79
2023-02-22T18:36:48.409Z,77.13
2023-02-22T18:39:49.960Z,77.49
2023-02-22T18:42:45.989Z,77.61
2023-02-22T18:45:42.510Z,77.51
2023-02-22T18:48:17.457Z,77.70
2023-02-22T18:51:40.616Z,77.81
2023-02-22T18:55:04.425Z,77.39
2023-02-22T18:58:33.034Z,78.03
2023-02-22T19:01:39.922Z,77.83
2023-02-22T19:04:15.177Z,78.53
2023-02-22T19:07:18.295Z,77.91
2023-02-22T19:09:53.834Z,78.37
2023-02-22T19:12:29.297Z,78.12
2023-02-22T19:15:00.618Z,78.47
2023-02-22T19:17:41.764Z,77.90
2023-02-22T19:20:15.682Z,77.09
2023-02-22T19:22:54.239Z,76.88
2023-02-22T19:25:35.305Z,76.54
2023-02-22T19:28:16.713Z,76.02
2023-02-22T19:30:52.644Z,76.08
2023-02-22T19:33:27.322Z,76.38
2023-02-22T19:37:02.869Z,77.35
2023-02-22T19:40:29.286Z,77.09
2023-02-22T19:43:03.976Z,76.88
2023-02-22T19:45:46.339Z,77.15
2023-02-22T19:48:19.191Z,77.85
2023-02-22T19:51:27.253Z,77.49
2023-02-22T19:54:50.665Z,77.18
2023-02-22T19:58:20.946Z,77.48
2023-02-22T20:01:45.421Z,78.22
2023-02-22T20:08:45.195Z,79.27
2023-02-22T20:11:27.738Z,79.37
2023-02-22T20:14:55.400Z,79.58
2023-02-22T20:21:35.325Z,80.34
2023-02-22T20:24:23.367Z,80.36
2023-02-22T20:27:00.099Z,80.53
2023-02-22T20:30:03.986Z,80.53
2023-02-22T20:32:38.553Z,80.67
2023-02-22T20:35:40.473Z,80.67
2023-02-22T20:38:14.504Z,80.58
2023-02-22T20:40:48.921Z,80.89
2023-02-22T20:47:39.728Z,80.97
2023-02-22T20:51:21.994Z,80.94
2023-02-22T20:54:20.268Z,80.97
2023-02-22T20:57:01.992Z,80.79
2023-02-22T21:00:31.128Z,80.78
2023-02-22T21:03:31.490Z,80.78
2023-02-22T21:06:08.807Z,80.81
2023-02-22T21:08:40.905Z,80.92
2023-02-22T21:11:13.911Z,81.39
2023-02-22T21:13:47.206Z,81.47
2023-02-22T21:16:25.638Z,81.71
2023-02-22T21:19:29.430Z,82.10
2023-02-22T21:22:10.982Z,81.99
2023-02-22T21:24:43.222Z,81.73
2023-02-22T21:27:13.883Z,82.06
2023-02-22T21:29:50.056Z,81.50
2023-02-22T21:32:23.997Z,81.66
2023-02-22T21:35:04.527Z,81.77
2023-02-22T21:37:36.624Z,81.88
2023-02-22T21:40:11.105Z,82.01
2023-02-22T21:43:31.967Z,81.80
2023-02-22T21:46:05.606Z,81.87
2023-02-22T21:48:36.335Z,82.00
2023-02-22T21:51:14.058Z,82.38
2023-02-22T21:53:52.673Z,82.16
2023-02-22T21:56:27.508Z,81.91
2023-02-22T21:59:03.624Z,82.25
2023-02-22T22:01:42.879Z,82.47
2023-02-22T22:04:20.591Z,82.23
2023-02-22T22:06:56.717Z,82.23
2023-02-22T22:09:29.097Z,82.62
2023-02-22T22:12:01.450Z,82.54
2023-02-22T22:14:32.395Z,82.62
2023-02-22T22:17:03.577Z,82.69
2023-02-22T22:19:39.557Z,82.24
2023-02-22T22:22:14.046Z,81.03
2023-02-22T22:24:48.794Z,80.56
2023-02-22T22:27:21.406Z,80.70
2023-02-22T22:29:51.854Z,80.90
2023-02-22T22:32:22.570Z,80.67
2023-02-22T22:34:52.887Z,81.25
2023-02-22T22:37:28.118Z,81.47
2023-02-22T22:40:05.083Z,81.34
2023-02-22T22:42:37.502Z,81.45
2023-02-22T22:45:11.907Z,81.24
2023-02-22T22:47:46.039Z,80.93
2023-02-22T22:50:19.889Z,80.63
2023-02-22T22:52:49.788Z,79.99
2023-02-22T22:55:45.058Z,81.46
2023-02-22T22:58:18.689Z,80.59
2023-02-22T23:01:59.383Z,80.78
2023-02-22T23:04:35.175Z,80.59
2023-02-22T23:07:07.668Z,80.32
2023-02-22T23:09:42.173Z,80.09
2023-02-22T23:12:17.753Z,80.49
2023-02-22T23:14:52.442Z,79.91
2023-02-22T23:17:31.671Z,80.15
2023-02-22T23:20:28.469Z,81.44
2023-02-22T23:22:58.125Z,81.30
2023-02-22T23:25:27.362Z,81.53
2023-02-22T23:28:02.983Z,81.45
2023-02-22T23:30:58.029Z,81.64
2023-02-22T23:33:35.562Z,81.40
2023-02-22T23:36:06.093Z,81.59
2023-02-22T23:38:36.353Z,81.49
2023-02-22T23:41:10.230Z,80.95
2023-02-22T23:43:44.312Z,80.61
2023-02-22T23:47:05.463Z,79.64
2023-02-22T23:49:38.713Z,79.30
2023-02-22T23:52:16.281Z,78.16
2023-02-22T23:54:53.786Z,80.41
2023-02-22T23:57:26.145Z,80.60
